NCAR-RAP Real-Time Weather Data

Output produced by METARs form (10 April 2020  07:18 UTC)
found at http://weather.rap.ucar.edu/surface/
 
KPHL 100654Z 28018G27KT 10SM FEW100 06/M04 A2947 RMK AO2 PK WND 29036/0634 SLP979 T00561044